Time;durP1;ratioP1;P1;durP2;ratioP2;P2;SDS_P1;SDS_P2;PMS_P1;PMS_P2;Temp;Humidity;BMP_temperature;BMP_pressure;BME280_temperature;BME280_humidity;BME280_pressure;Samples;Min_cycle;Max_cycle;Signal;HPM_P1;HPM_P2
2023/09/18 00:01:56;;;;;;;6.10;5.60;;;;;;;17.09;100.00;96038.94;5052784;27;105670;-75
2023/09/18 00:04:23;;;;;;;5.13;4.73;;;;;;;17.19;100.00;96033.38;5052496;27;105836;-75
2023/09/18 00:06:51;;;;;;;5.97;5.47;;;;;;;16.97;100.00;96024.41;5052800;27;101977;-76
2023/09/18 00:09:18;;;;;;;5.77;5.33;;;;;;;16.86;100.00;96031.09;5055668;27;105199;-76
2023/09/18 00:11:45;;;;;;;5.27;4.77;;;;;;;16.82;100.00;96016.66;5052833;27;101873;-76
2023/09/18 00:14:13;;;;;;;5.87;5.37;;;;;;;16.98;100.00;96023.31;5052852;27;105326;-76
2023/09/18 00:16:40;;;;;;;5.83;5.10;;;;;;;16.70;100.00;96027.09;5051998;27;105889;-76
2023/09/18 00:19:07;;;;;;;5.63;5.00;;;;;;;16.68;100.00;96016.66;5053003;27;102365;-75
2023/09/18 00:21:35;;;;;;;5.47;4.93;;;;;;;17.01;100.00;96023.50;5051622;27;104836;-76
2023/09/18 00:24:02;;;;;;;5.37;4.90;;;;;;;16.87;100.00;96011.19;5069987;27;102785;-76
2023/09/18 00:26:28;;;;;;;5.23;4.83;;;;;;;17.05;100.00;96013.00;5052821;27;102163;-76
2023/09/18 00:28:56;;;;;;;7.03;5.13;;;;;;;16.82;100.00;95995.97;5052756;27;105181;-76
2023/09/18 00:31:24;;;;;;;5.50;5.10;;;;;;;16.71;100.00;95997.28;5055565;27;105232;-77
2023/09/18 00:33:51;;;;;;;5.97;5.47;;;;;;;16.67;100.00;95998.16;5052785;27;104873;-77
2023/09/18 00:36:18;;;;;;;6.67;5.70;;;;;;;16.62;100.00;95991.00;5051898;27;104094;-77
2023/09/18 00:38:46;;;;;;;5.63;5.13;;;;;;;16.96;100.00;95998.66;5052665;27;101967;-77
2023/09/18 00:41:13;;;;;;;5.30;4.87;;;;;;;16.87;100.00;96001.25;5052799;27;104837;-77
2023/09/18 00:43:40;;;;;;;5.90;5.40;;;;;;;16.91;100.00;95985.31;5051534;27;105350;-77
2023/09/18 00:46:07;;;;;;;6.00;5.40;;;;;;;16.81;100.00;95980.16;5052387;27;102046;-76
2023/09/18 00:48:36;;;;;;;5.70;5.20;;;;;;;16.80;100.00;95982.06;5070811;27;102932;-75
2023/09/18 00:51:03;;;;;;;5.87;5.33;;;;;;;16.79;100.00;95968.94;5051721;27;105612;-75
2023/09/18 00:53:31;;;;;;;5.50;5.10;;;;;;;16.87;100.00;95987.00;5055877;27;102009;-75
2023/09/18 00:56:01;;;;;;;6.13;5.63;;;;;;;16.84;100.00;95980.34;5051390;27;105220;-76
2023/09/18 00:58:28;;;;;;;5.40;4.90;;;;;;;16.80;100.00;95967.81;5052202;27;102188;-76
2023/09/18 01:00:55;;;;;;;5.90;5.30;;;;;;;16.68;100.00;95959.47;5052051;27;105566;-76
2023/09/18 01:03:25;;;;;;;6.00;5.40;;;;;;;16.79;100.00;95963.56;5051829;27;105474;-76
2023/09/18 01:05:55;;;;;;;5.83;5.23;;;;;;;16.75;100.00;95949.13;5052320;27;102276;-76
2023/09/18 01:08:22;;;;;;;6.23;5.60;;;;;;;16.55;100.00;95953.00;5070284;27;103070;-76
2023/09/18 01:10:59;;;;;;;5.87;5.37;;;;;;;16.54;100.00;95947.94;5051465;27;105076;-76
2023/09/18 01:13:36;;;;;;;5.57;5.07;;;;;;;16.82;100.00;95946.81;5055556;27;101745;-76
2023/09/18 01:16:09;;;;;;;5.80;5.30;;;;;;;16.67;100.00;95955.22;5051459;27;105422;-76
2023/09/18 01:18:36;;;;;;;6.30;5.70;;;;;;;16.80;100.00;95952.53;5052143;27;102225;-76
2023/09/18 01:21:04;;;;;;;5.80;5.27;;;;;;;16.56;100.00;95951.91;5052082;27;104885;-76
2023/09/18 01:23:33;;;;;;;6.40;5.80;;;;;;;16.53;100.00;95951.72;5051292;27;104302;-75
2023/09/18 01:25:59;;;;;;;6.17;5.60;;;;;;;16.34;100.00;95948.28;5051609;27;101909;-75
2023/09/18 01:28:26;;;;;;;5.73;5.23;;;;;;;16.48;100.00;95943.75;5051836;27;105737;-76
2023/09/18 01:30:53;;;;;;;5.47;5.07;;;;;;;16.78;100.00;95943.16;5051353;27;105295;-75
2023/09/18 01:33:22;;;;;;;6.67;6.00;;;;;;;16.62;100.00;95942.66;5055104;27;102046;-75
2023/09/18 01:35:54;;;;;;;6.13;5.57;;;;;;;16.50;100.00;95941.56;5058396;27;105305;-75
2023/09/18 01:38:23;;;;;;;5.80;5.40;;;;;;;16.43;100.00;95935.81;5055505;27;102321;-76
2023/09/18 01:40:54;;;;;;;6.17;5.57;;;;;;;16.49;100.00;95940.78;5055462;27;105874;-76
2023/09/18 01:43:22;;;;;;;6.20;5.67;;;;;;;16.67;100.00;95947.94;5054664;27;106509;-76
2023/09/18 01:45:49;;;;;;;6.03;5.43;;;;;;;16.54;100.00;95931.81;5073629;27;101913;-76
2023/09/18 01:48:16;;;;;;;6.07;5.23;;;;;;;16.87;100.00;95925.25;5055208;27;104004;-76
2023/09/18 01:50:43;;;;;;;6.90;6.30;;;;;;;16.59;100.00;95916.44;5054567;27;105268;-76
2023/09/18 01:53:09;;;;;;;6.33;4.90;;;;;;;16.74;100.00;95921.47;5055256;27;101877;-76
2023/09/18 01:55:36;;;;;;;5.87;5.37;;;;;;;16.77;100.00;95925.44;5054858;27;105229;-76
2023/09/18 01:58:04;;;;;;;6.63;5.90;;;;;;;16.07;100.00;95913.41;5057948;27;105311;-76
2023/09/18 02:00:31;;;;;;;6.50;4.97;;;;;;;16.75;100.00;95927.66;5055217;27;104857;-76
2023/09/18 02:02:58;;;;;;;7.50;6.30;;;;;;;16.32;100.00;95932.50;5054206;27;105689;-76
2023/09/18 02:05:25;;;;;;;7.23;6.63;;;;;;;16.11;100.00;95938.50;5054975;27;102151;-76
2023/09/18 02:07:52;;;;;;;7.07;6.47;;;;;;;16.42;100.00;95944.94;5038102;27;104100;-76
2023/09/18 02:10:19;;;;;;;6.77;6.17;;;;;;;16.35;100.00;95947.97;5054509;27;105806;-76
2023/09/18 02:12:46;;;;;;;7.60;6.90;;;;;;;16.34;100.00;95932.97;5054697;27;101967;-76
2023/09/18 02:15:16;;;;;;;6.47;5.97;;;;;;;16.77;100.00;95937.00;5073337;27;102566;-76
2023/09/18 02:17:44;;;;;;;7.23;6.63;;;;;;;16.53;100.00;95924.88;5054102;27;106252;-76
2023/09/18 02:20:12;;;;;;;6.83;6.23;;;;;;;16.78;100.00;95919.00;5058332;27;101887;-76
2023/09/18 02:22:40;;;;;;;7.13;6.00;;;;;;;16.27;100.00;95910.31;5054230;27;105147;-76
2023/09/18 02:25:09;;;;;;;7.63;6.13;;;;;;;16.42;100.00;95902.81;5050810;27;101869;-76
2023/09/18 02:27:36;;;;;;;6.13;5.50;;;;;;;16.69;100.00;95886.69;5051137;27;105415;-76
2023/09/18 02:30:03;;;;;;;7.00;6.30;;;;;;;16.23;100.00;95871.75;5050473;27;105263;-76
2023/09/18 02:32:34;;;;;;;7.00;6.27;;;;;;;16.42;100.00;95869.81;5051167;27;102014;-76
2023/09/18 02:35:01;;;;;;;7.93;6.40;;;;;;;16.35;100.00;95870.16;5051276;27;103792;-76
2023/09/18 02:37:29;;;;;;;6.07;5.40;;;;;;;16.43;100.00;95872.19;5050631;27;105299;-74
2023/09/18 02:39:55;;;;;;;7.57;6.70;;;;;;;16.22;100.00;95876.34;5051008;27;101985;-75
2023/09/18 02:42:23;;;;;;;8.10;7.27;;;;;;;16.21;100.00;95880.13;5055123;27;102635;-75
2023/09/18 02:44:50;;;;;;;7.60;6.90;;;;;;;15.95;100.00;95875.50;5049898;27;101880;-75
2023/09/18 02:47:17;;;;;;;8.03;7.23;;;;;;;15.95;100.00;95881.69;5050984;27;105142;-75
2023/09/18 02:49:46;;;;;;;9.40;6.80;;;;;;;16.12;100.00;95873.03;5050367;27;105817;-75
2023/09/18 02:52:14;;;;;;;6.43;5.93;;;;;;;16.70;100.00;95879.41;5051032;27;101983;-76
2023/09/18 02:54:41;;;;;;;7.50;6.80;;;;;;;16.42;100.00;95877.84;5050829;27;105104;-76
2023/09/18 02:57:08;;;;;;;7.33;6.73;;;;;;;16.08;100.00;95891.63;5050219;27;104359;-76
2023/09/18 02:59:35;;;;;;;7.67;6.97;;;;;;;16.07;100.00;95898.06;5050848;27;101873;-76
2023/09/18 03:02:02;;;;;;;7.10;6.50;;;;;;;15.88;100.00;95897.38;5051054;27;104746;-74
2023/09/18 03:04:30;;;;;;;7.73;7.10;;;;;;;15.97;100.00;95886.75;5053240;27;102101;-75
2023/09/18 03:06:59;;;;;;;7.10;6.40;;;;;;;15.74;100.00;95883.13;5050648;27;105254;-75
2023/09/18 03:09:26;;;;;;;6.93;6.33;;;;;;;15.95;100.00;95886.22;5049998;27;104331;-77
2023/09/18 03:11:53;;;;;;;7.60;6.90;;;;;;;15.94;100.00;95874.72;5050509;27;102020;-79
2023/09/18 03:14:20;;;;;;;8.00;7.27;;;;;;;15.75;100.00;95870.53;5050504;27;104255;-77
2023/09/18 03:16:47;;;;;;;7.30;6.43;;;;;;;16.02;100.00;95870.56;5032938;27;106050;-77
2023/09/18 03:19:14;;;;;;;9.40;7.03;;;;;;;16.25;100.00;95872.25;5050766;27;101913;-77
2023/09/18 03:21:42;;;;;;;7.00;6.30;;;;;;;16.30;100.00;95867.56;5050626;27;105266;-77
2023/09/18 03:24:11;;;;;;;7.43;6.60;;;;;;;16.30;100.00;95854.16;5055531;27;103786;-77
2023/09/18 03:26:38;;;;;;;7.33;6.63;;;;;;;16.51;100.00;95851.91;5072376;27;102550;-77
2023/09/18 03:29:05;;;;;;;7.30;6.10;;;;;;;16.59;100.00;95846.63;5053206;27;105588;-77
2023/09/18 03:31:32;;;;;;;8.10;6.80;;;;;;;16.66;100.00;95843.53;5053615;27;102096;-77
2023/09/18 03:33:59;;;;;;;7.50;6.70;;;;;;;16.63;100.00;95842.22;5053432;27;105764;-77
2023/09/18 03:36:27;;;;;;;7.03;6.33;;;;;;;16.51;100.00;95843.88;5036437;27;104793;-77
2023/09/18 03:38:55;;;;;;;7.53;6.20;;;;;;;16.38;100.00;95825.84;5053356;27;101983;-77
2023/09/18 03:41:24;;;;;;;7.13;6.33;;;;;;;16.36;100.00;95833.41;5053582;27;105436;-76
2023/09/18 03:43:51;;;;;;;10.10;7.57;;;;;;;15.85;100.00;95824.75;5052718;27;105188;-77
2023/09/18 03:46:18;;;;;;;7.30;6.70;;;;;;;15.98;100.00;95816.69;5056802;27;102050;-77
2023/09/18 03:48:49;;;;;;;7.13;6.43;;;;;;;16.16;100.00;95818.50;5052800;27;105532;-77
2023/09/18 03:51:16;;;;;;;8.77;5.73;;;;;;;16.59;100.00;95824.34;5053344;27;101938;-77
2023/09/18 03:53:42;;;;;;;6.90;6.20;;;;;;;16.76;100.00;95828.00;5053440;27;105078;-76
2023/09/18 03:56:09;;;;;;;6.87;6.27;;;;;;;16.63;100.00;95836.88;5070578;27;102714;-76
2023/09/18 03:58:38;;;;;;;8.40;6.47;;;;;;;16.43;100.00;95833.81;5053465;27;102046;-76
2023/09/18 04:01:04;;;;;;;7.90;7.20;;;;;;;16.17;100.00;95814.72;5053200;27;105418;-76
2023/09/18 04:03:31;;;;;;;6.73;5.60;;;;;;;16.48;100.00;95809.56;5052428;27;105500;-76
2023/09/18 04:05:59;;;;;;;6.83;6.23;;;;;;;16.11;100.00;95805.19;5053215;27;102176;-77
2023/09/18 04:08:27;;;;;;;7.40;6.60;;;;;;;16.26;100.00;95796.03;5055674;27;104428;-77
2023/09/18 04:10:58;;;;;;;6.57;5.97;;;;;;;16.38;100.00;95790.94;5052844;27;101873;-77
2023/09/18 04:13:25;;;;;;;6.80;6.10;;;;;;;16.33;100.00;95796.41;5052906;27;105025;-77
2023/09/18 04:15:56;;;;;;;7.00;6.23;;;;;;;16.14;100.00;95793.06;5052681;27;105800;-77
2023/09/18 04:18:24;;;;;;;6.70;6.00;;;;;;;16.12;100.00;95792.56;5052898;27;101959;-76
2023/09/18 04:20:51;;;;;;;7.03;6.33;;;;;;;15.86;100.00;95792.28;5052851;27;105103;-77
2023/09/18 04:23:24;;;;;;;6.33;5.73;;;;;;;16.03;100.00;95797.84;5051908;27;105222;-77
2023/09/18 04:25:53;;;;;;;6.70;6.10;;;;;;;16.03;100.00;95797.84;5052428;27;101938;-77
2023/09/18 04:28:22;;;;;;;6.70;6.07;;;;;;;16.13;100.00;95810.28;5052673;27;105079;-77
2023/09/18 04:30:49;;;;;;;5.70;5.20;;;;;;;15.97;100.00;95798.25;5055541;27;104064;-76
2023/09/18 04:33:18;;;;;;;6.73;6.13;;;;;;;15.95;100.00;95793.19;5052770;27;104159;-76
2023/09/18 04:35:45;;;;;;;6.97;6.37;;;;;;;15.73;100.00;95792.25;5051925;27;105470;-78
2023/09/18 04:38:15;;;;;;;6.70;6.07;;;;;;;15.67;100.00;95785.41;5052562;27;101948;-76
2023/09/18 04:40:42;;;;;;;6.53;6.03;;;;;;;15.65;100.00;95780.34;5052708;27;104988;-76
2023/09/18 04:43:09;;;;;;;7.20;6.60;;;;;;;15.87;100.00;95764.38;5051781;27;105083;-74
2023/09/18 04:45:36;;;;;;;7.70;7.00;;;;;;;15.66;100.00;95770.44;5052652;27;102173;-76
2023/09/18 04:48:05;;;;;;;8.90;7.50;;;;;;;15.72;100.00;95770.03;5052554;27;105033;-76
2023/09/18 04:50:34;;;;;;;7.60;6.90;;;;;;;15.80;100.00;95772.03;5052056;27;104117;-77
2023/09/18 04:53:03;;;;;;;7.90;6.57;;;;;;;16.23;100.00;95767.13;5055700;27;101962;-77
2023/09/18 04:55:30;;;;;;;8.07;7.07;;;;;;;16.21;100.00;95772.00;5051610;27;105715;-77
2023/09/18 04:57:58;;;;;;;9.83;7.23;;;;;;;16.36;100.00;95779.72;5052352;27;101891;-76
2023/09/18 05:00:26;;;;;;;8.97;6.50;;;;;;;16.45;100.00;95777.97;5052256;27;105517;-77
2023/09/18 05:02:53;;;;;;;7.33;6.60;;;;;;;16.01;100.00;95772.41;5051524;27;105344;-77
2023/09/18 05:05:20;;;;;;;7.07;6.37;;;;;;;16.06;100.00;95769.63;5052288;27;101968;-77
2023/09/18 05:07:49;;;;;;;6.40;5.90;;;;;;;15.91;100.00;95778.78;5051362;27;105069;-77
2023/09/18 05:10:16;;;;;;;5.97;5.37;;;;;;;16.40;100.00;95780.75;5051641;27;105634;-77
2023/09/18 05:12:43;;;;;;;7.60;5.97;;;;;;;16.08;100.00;95772.81;5055578;27;102004;-77
2023/09/18 05:15:12;;;;;;;7.63;6.00;;;;;;;16.20;100.00;95778.47;5051506;27;104257;-77
2023/09/18 05:17:46;;;;;;;6.23;5.67;;;;;;;16.47;100.00;95783.81;5052056;27;102046;-77
2023/09/18 05:20:15;;;;;;;8.17;6.57;;;;;;;16.69;100.00;95778.50;5052151;27;105504;-77
2023/09/18 05:22:43;;;;;;;6.80;6.20;;;;;;;16.44;100.00;95765.63;5051209;27;105899;-77
2023/09/18 05:25:11;;;;;;;6.60;6.10;;;;;;;16.35;100.00;95768.19;5051176;27;102009;-77
2023/09/18 05:27:43;;;;;;;8.83;5.90;;;;;;;16.27;100.00;95771.59;5052065;27;105211;-77
2023/09/18 05:30:14;;;;;;;6.30;5.70;;;;;;;16.02;100.00;95758.69;5051381;27;104340;-77
2023/09/18 05:32:42;;;;;;;8.30;5.73;;;;;;;16.31;100.00;95766.44;5051836;27;101893;-77
2023/09/18 05:35:12;;;;;;;8.60;6.40;;;;;;;16.38;100.00;95754.19;5054786;27;104045;-77
2023/09/18 05:37:39;;;;;;;7.60;6.00;;;;;;;16.33;100.00;95742.75;5051743;27;102192;-77
2023/09/18 05:40:09;;;;;;;6.67;6.07;;;;;;;16.41;100.00;95742.09;5051703;27;105615;-77
2023/09/18 05:42:38;;;;;;;6.20;5.60;;;;;;;16.62;100.00;95740.53;5051335;27;105131;-77
2023/09/18 05:45:06;;;;;;;6.03;5.47;;;;;;;16.58;100.00;95744.91;5051777;27;101962;-77
2023/09/18 05:47:35;;;;;;;6.00;5.20;;;;;;;16.90;100.00;95729.38;5051807;27;105522;-77
2023/09/18 05:50:03;;;;;;;6.97;5.90;;;;;;;16.74;100.00;95728.13;5069297;27;102787;-77
2023/09/18 05:52:31;;;;;;;7.93;5.20;;;;;;;17.01;100.00;95727.25;5051658;27;101936;-77
2023/09/18 05:54:58;;;;;;;6.00;5.00;;;;;;;16.94;100.00;95733.03;5051667;27;104459;-77
2023/09/18 05:57:27;;;;;;;5.93;5.43;;;;;;;17.19;100.00;95737.00;5054413;27;105635;-77
2023/09/18 05:59:55;;;;;;;5.30;4.80;;;;;;;17.18;100.00;95732.72;5051304;27;105388;-77
2023/09/18 06:02:22;;;;;;;5.47;4.97;;;;;;;17.49;100.00;95742.41;5050712;27;105885;-77
2023/09/18 06:04:49;;;;;;;6.10;4.83;;;;;;;17.50;100.00;95735.91;5051502;27;102159;-77
2023/09/18 06:07:16;;;;;;;5.97;5.47;;;;;;;17.59;100.00;95744.81;5051643;27;105312;-77
2023/09/18 06:09:44;;;;;;;7.47;5.00;;;;;;;17.43;100.00;95742.88;5050918;27;105139;-77
2023/09/18 06:12:11;;;;;;;5.53;5.00;;;;;;;17.58;100.00;95747.81;5051320;27;101968;-77
2023/09/18 06:14:38;;;;;;;5.70;4.40;;;;;;;17.82;100.00;95750.94;5051268;27;104903;-77
2023/09/18 06:17:07;;;;;;;8.47;5.13;;;;;;;18.01;100.00;95746.09;5050776;27;105452;-77
2023/09/18 06:19:35;;;;;;;5.50;5.00;;;;;;;18.15;100.00;95752.16;5074931;27;101863;-77
2023/09/18 06:22:02;;;;;;;5.37;4.87;;;;;;;18.07;100.00;95742.94;5054161;27;104334;-77
2023/09/18 06:24:29;;;;;;;6.13;4.67;;;;;;;18.03;100.00;95739.28;5053998;27;101955;-77
2023/09/18 06:26:56;;;;;;;7.63;4.70;;;;;;;18.00;100.00;95742.63;5054680;27;105217;-77
2023/09/18 06:29:23;;;;;;;5.20;4.60;;;;;;;18.09;100.00;95742.66;5054070;27;105204;-77
2023/09/18 06:31:51;;;;;;;5.03;4.53;;;;;;;18.15;100.00;95736.00;5054580;27;102030;-77
2023/09/18 06:34:19;;;;;;;4.80;4.40;;;;;;;18.48;100.00;95718.34;5054295;27;104053;-77
2023/09/18 06:36:46;;;;;;;5.27;4.60;;;;;;;18.58;100.00;95728.81;5053849;27;103925;-77
2023/09/18 06:39:13;;;;;;;7.07;5.10;;;;;;;18.62;100.00;95729.75;5054756;27;101920;-77
2023/09/18 06:41:40;;;;;;;5.37;4.87;;;;;;;18.91;100.00;95738.00;5057226;27;104831;-77
2023/09/18 06:44:07;;;;;;;5.73;4.77;;;;;;;18.67;100.00;95724.22;5054794;27;102049;-77
2023/09/18 06:46:34;;;;;;;4.90;4.47;;;;;;;18.62;100.00;95730.56;5054382;27;104129;-77
2023/09/18 06:49:01;;;;;;;4.73;4.43;;;;;;;18.72;100.00;95734.84;5071943;27;103141;-77
2023/09/18 06:51:29;;;;;;;6.67;3.93;;;;;;;18.74;100.00;95735.31;5054386;27;101933;-77
2023/09/18 06:53:57;;;;;;;4.60;4.10;;;;;;;19.17;100.00;95738.75;5054168;27;105006;-77
2023/09/18 06:56:24;;;;;;;5.90;4.40;;;;;;;19.19;100.00;95733.84;5053916;27;105103;-77
2023/09/18 06:58:51;;;;;;;5.00;4.37;;;;;;;19.21;100.00;95745.94;5054248;27;102426;-77
2023/09/18 07:01:19;;;;;;;4.83;4.30;;;;;;;18.82;100.00;95745.28;5054066;27;104989;-77
2023/09/18 07:03:46;;;;;;;6.77;4.07;;;;;;;18.72;100.00;95757.19;5075447;27;102989;-77
2023/09/18 07:06:15;;;;;;;6.70;4.60;;;;;;;18.63;100.00;95756.38;5054297;27;105205;-77
2023/09/18 07:08:44;;;;;;;5.23;4.37;;;;;;;18.51;100.00;95760.78;5053426;27;105521;-77
2023/09/18 07:11:11;;;;;;;6.50;5.07;;;;;;;18.43;100.00;95765.06;5072243;27;101822;-77
2023/09/18 07:13:38;;;;;;;6.50;5.20;;;;;;;18.27;100.00;95763.09;5072430;27;102653;-77
2023/09/18 07:16:07;;;;;;;6.37;5.50;;;;;;;18.35;100.00;95770.41;5053267;27;105322;-77
2023/09/18 07:18:34;;;;;;;5.30;4.80;;;;;;;18.68;100.00;95769.69;5053853;27;102505;-77
2023/09/18 07:21:01;;;;;;;5.43;4.90;;;;;;;18.99;100.00;95774.94;5053840;27;105178;-77
2023/09/18 07:23:28;;;;;;;6.90;4.87;;;;;;;19.03;100.00;95775.88;5056638;27;105792;-77
2023/09/18 07:25:57;;;;;;;5.80;4.90;;;;;;;18.88;100.00;95766.38;5053173;27;104965;-77
2023/09/18 07:28:25;;;;;;;5.80;5.30;;;;;;;19.01;100.00;95765.41;5052982;27;105444;-77
2023/09/18 07:30:52;;;;;;;6.17;4.73;;;;;;;19.17;100.00;95763.00;5053208;27;101932;-77
2023/09/18 07:33:19;;;;;;;5.30;4.73;;;;;;;19.26;100.00;95774.63;5053491;27;105528;-77
2023/09/18 07:35:48;;;;;;;4.90;4.40;;;;;;;19.52;100.00;95770.75;5052911;27;105143;-77
2023/09/18 07:38:15;;;;;;;6.13;4.63;;;;;;;19.74;100.00;95762.47;5053459;27;101830;-77
2023/09/18 07:40:42;;;;;;;7.37;4.60;;;;;;;19.69;100.00;95757.22;5053576;27;104236;-77
2023/09/18 07:43:10;;;;;;;6.00;4.47;;;;;;;19.81;100.00;95768.13;5052831;27;105841;-77
2023/09/18 07:45:40;;;;;;;5.20;4.07;;;;;;;19.92;100.00;95771.25;5057047;27;101857;-77
2023/09/18 07:48:07;;;;;;;5.17;4.10;;;;;;;20.03;100.00;95764.38;5052950;27;104169;-77
2023/09/18 07:50:34;;;;;;;7.33;4.80;;;;;;;20.05;100.00;95767.56;5053321;27;101973;-77
2023/09/18 07:53:01;;;;;;;6.07;4.10;;;;;;;20.36;100.00;95758.06;5053405;27;103981;-77
2023/09/18 07:55:29;;;;;;;4.60;3.60;;;;;;;20.63;100.00;95767.56;5052669;27;105603;-77
2023/09/18 07:57:56;;;;;;;7.00;3.97;;;;;;;20.58;100.00;95751.53;5053091;27;101960;-77
2023/09/18 08:00:26;;;;;;;6.43;4.10;;;;;;;20.69;100.00;95752.75;5053141;27;105139;-77
2023/09/18 08:02:58;;;;;;;4.40;3.70;;;;;;;21.08;100.00;95752.31;5052437;27;105939;-77
2023/09/18 08:05:28;;;;;;;5.80;3.70;;;;;;;21.23;100.00;95747.06;5053189;27;101924;-77
2023/09/18 08:07:56;;;;;;;6.60;3.63;;;;;;;21.47;100.00;95751.78;5056003;27;104333;-77
2023/09/18 08:10:24;;;;;;;6.97;3.83;;;;;;;21.72;100.00;95748.81;5053024;27;101917;-77
2023/09/18 08:12:52;;;;;;;6.13;3.73;;;;;;;21.59;100.00;95762.63;5052963;27;104751;-77
2023/09/18 08:15:19;;;;;;;8.13;3.80;;;;;;;21.82;100.00;95767.34;5052142;27;105706;-77
2023/09/18 08:17:50;;;;;;;4.67;3.40;;;;;;;21.95;100.00;95773.53;5052986;27;102116;-77
2023/09/18 08:20:17;;;;;;;9.07;3.50;;;;;;;21.66;100.00;95819.69;5052769;27;105780;-77
2023/09/18 08:22:47;;;;;;;8.60;3.80;;;;;;;21.57;100.00;95836.00;5070818;27;102814;-77
2023/09/18 08:25:14;;;;;;;11.30;3.63;;;;;;;21.84;100.00;95843.56;5070499;27;101994;-77
2023/09/18 08:27:43;;;;;;;8.00;3.83;;;;;;;22.06;100.00;95832.34;5052922;27;105290;-77
2023/09/18 08:30:12;;;;;;;5.30;3.10;;;;;;;22.38;100.00;95828.78;5055505;27;105112;-77
2023/09/18 08:32:39;;;;;;;11.90;4.30;;;;;;;22.60;100.00;95822.94;5052889;27;105351;-77
2023/09/18 08:35:09;;;;;;;8.97;3.30;;;;;;;23.03;100.00;95828.53;5052305;27;104078;-77
2023/09/18 08:37:36;;;;;;;9.43;3.50;;;;;;;23.34;100.00;95836.03;5052760;27;102408;-77
2023/09/18 08:40:09;;;;;;;10.13;3.33;;;;;;;23.63;100.00;95824.84;5052843;27;104771;-77
2023/09/18 08:42:39;;;;;;;11.87;3.40;;;;;;;23.84;100.00;95822.72;5051069;27;104291;-77
2023/09/18 08:45:10;;;;;;;7.47;3.13;;;;;;;23.98;100.00;95823.91;5052239;27;101941;-77
2023/09/18 08:47:39;;;;;;;7.53;3.50;;;;;;;24.10;100.00;95832.00;5052430;27;104080;-77
2023/09/18 08:50:10;;;;;;;7.33;3.23;;;;;;;24.42;100.00;95832.78;5070318;27;102054;-77
2023/09/18 08:52:37;;;;;;;7.57;3.30;;;;;;;24.78;100.00;95827.88;5056145;27;102016;-77
2023/09/18 08:55:05;;;;;;;8.47;3.17;;;;;;;24.77;100.00;95823.56;5051831;27;105542;-77
2023/09/18 08:57:33;;;;;;;6.93;3.40;;;;;;;25.11;100.00;95824.72;5052201;27;102008;-77
2023/09/18 09:00:06;;;;;;;8.20;3.40;;;;;;;25.07;100.00;95813.75;5052188;27;105192;-77
2023/09/18 09:02:33;;;;;;;9.57;3.17;;;;;;;25.03;100.00;95815.63;5051916;27;105213;-77
2023/09/18 09:05:00;;;;;;;11.37;3.13;;;;;;;24.98;100.00;95820.53;5052415;27;102386;-77
2023/09/18 09:07:31;;;;;;;11.43;3.17;;;;;;;24.89;100.00;95833.53;5052189;27;105147;-77
2023/09/18 09:09:58;;;;;;;11.50;3.30;;;;;;;24.94;100.00;95830.53;5070093;27;102795;-77
2023/09/18 09:12:49;;;;;;;10.27;3.20;;;;;;;24.98;100.00;95839.59;5052110;27;101822;-77
2023/09/18 09:15:16;;;;;;;10.27;3.13;;;;;;;25.00;100.00;95840.00;5054781;27;105198;-77
2023/09/18 09:17:44;;;;;;;12.77;2.73;;;;;;;25.07;100.00;95840.97;5052092;27;102023;-77
2023/09/18 09:20:12;;;;;;;11.80;2.97;;;;;;;25.13;100.00;95838.75;5051901;27;105719;-77
2023/09/18 09:22:41;;;;;;;6.87;3.27;;;;;;;25.42;100.00;95833.59;5051377;27;105677;-77
2023/09/18 09:25:23;;;;;;;9.77;3.00;;;;;;;25.25;100.00;95841.38;5051768;27;102152;-77
2023/09/18 09:27:50;;;;;;;9.10;3.33;;;;;;;24.95;100.00;95846.53;5051810;27;105393;-77
2023/09/18 09:30:22;;;;;;;10.57;2.93;;;;;;;25.11;100.00;95844.56;5051441;27;105902;-77
2023/09/18 09:32:50;;;;;;;9.70;3.43;;;;;;;25.05;100.00;95848.69;5051860;27;101959;-77
2023/09/18 09:35:27;;;;;;;11.93;3.00;;;;;;;24.93;100.00;95856.19;5054673;27;104920;-77
2023/09/18 09:37:58;;;;;;;11.13;3.33;;;;;;;24.93;100.00;95856.19;5051830;27;102290;-77
2023/09/18 09:40:26;;;;;;;11.03;2.93;;;;;;;25.22;100.00;95855.69;5052129;27;105163;-77
2023/09/18 09:43:00;;;;;;;7.67;3.00;;;;;;;25.11;100.00;95855.44;5050894;27;106245;-77
2023/09/18 09:45:29;;;;;;;12.77;3.00;;;;;;;24.87;100.00;95868.47;5051691;27;101875;-77
2023/09/18 09:48:20;;;;;;;10.07;3.27;;;;;;;24.76;100.00;95868.25;5070130;27;102087;-77
2023/09/18 09:50:50;;;;;;;11.40;2.97;;;;;;;24.84;100.00;95874.63;5051001;27;105676;-77
2023/09/18 09:53:19;;;;;;;13.43;3.57;;;;;;;24.90;100.00;95854.94;5053285;27;101909;-77
2023/09/18 09:55:55;;;;;;;9.33;2.70;;;;;;;25.21;100.00;95864.97;5037955;27;105099;-77
2023/09/18 09:58:30;;;;;;;10.17;3.00;;;;;;;25.33;100.00;95875.78;5057861;27;104583;-77
2023/09/18 10:01:05;;;;;;;9.17;3.13;;;;;;;25.46;100.00;95869.06;5055150;27;104930;-77
2023/09/18 10:03:34;;;;;;;11.20;2.77;;;;;;;25.31;100.00;95880.78;5054368;27;105608;-77
2023/09/18 10:06:03;;;;;;;8.23;2.63;;;;;;;25.92;100.00;95870.81;5055109;27;101792;-77
2023/09/18 10:08:33;;;;;;;8.97;2.87;;;;;;;25.59;100.00;95886.84;5055006;27;106752;-77
2023/09/18 10:11:08;;;;;;;7.77;2.30;;;;;;;25.37;100.00;95906.59;5072649;27;103230;-77
2023/09/18 10:13:42;;;;;;;10.10;2.70;;;;;;;25.10;100.00;95902.03;5054989;27;102110;-77
2023/09/18 10:16:12;;;;;;;7.83;2.50;;;;;;;24.89;100.00;95899.63;5054936;27;105229;-77
2023/09/18 10:18:46;;;;;;;9.37;2.77;;;;;;;25.19;100.00;95903.44;5054211;27;105675;-77
2023/09/18 10:21:23;;;;;;;10.70;2.80;;;;;;;25.44;100.00;95904.03;5058266;27;102069;-77
2023/09/18 10:24:03;;;;;;;7.07;2.57;;;;;;;25.24;100.00;95916.00;5054183;27;105273;-77
2023/09/18 10:26:33;;;;;;;7.70;2.70;;;;;;;25.37;100.00;95914.75;5054580;27;102105;-77
2023/09/18 10:29:03;;;;;;;6.03;2.63;;;;;;;25.23;100.00;95928.03;5054783;27;102916;-77
2023/09/18 10:31:30;;;;;;;7.60;2.60;;;;;;;25.01;100.00;95923.22;5054107;27;105553;-77
2023/09/18 10:33:58;;;;;;;9.17;2.93;;;;;;;24.70;100.00;95925.97;5054581;27;101983;-77
2023/09/18 10:36:26;;;;;;;9.63;2.60;;;;;;;24.67;100.00;95930.16;5073208;27;102620;-77
2023/09/18 10:38:57;;;;;;;4.50;2.40;;;;;;;24.40;100.00;95936.41;5054106;27;104405;-77
2023/09/18 10:41:25;;;;;;;6.33;2.80;;;;;;;24.36;100.00;95927.38;5073130;27;102196;-77
2023/09/18 10:43:57;;;;;;;10.40;3.50;;;;;;;24.41;100.00;95931.78;5057258;27;104663;-77
2023/09/18 10:46:25;;;;;;;7.67;2.60;;;;;;;24.29;100.00;95945.41;5054381;27;102221;-77
2023/09/18 10:48:53;;;;;;;9.37;2.70;;;;;;;24.26;100.00;95932.53;5054390;27;104899;-77
2023/09/18 10:51:21;;;;;;;9.00;2.40;;;;;;;24.48;100.00;95938.22;5053673;27;105567;-77
2023/09/18 10:53:49;;;;;;;6.67;2.57;;;;;;;24.21;100.00;95930.88;5054405;27;102212;-77
2023/09/18 10:56:17;;;;;;;12.70;3.07;;;;;;;24.20;100.00;95926.56;5053988;27;105700;-77
2023/09/18 10:58:44;;;;;;;9.93;2.83;;;;;;;24.18;100.00;95917.16;5053709;27;104425;-77
2023/09/18 11:01:13;;;;;;;9.80;2.80;;;;;;;24.36;100.00;95915.72;5054025;27;102344;-77
2023/09/18 11:03:41;;;;;;;7.33;2.90;;;;;;;24.56;100.00;95909.25;5054343;27;103708;-77
2023/09/18 11:06:12;;;;;;;11.13;3.13;;;;;;;24.74;100.00;95907.81;5056254;27;105452;-77
2023/09/18 11:08:45;;;;;;;6.93;2.50;;;;;;;24.74;100.00;95905.84;5054235;27;104993;-77
2023/09/18 11:11:14;;;;;;;7.60;2.43;;;;;;;24.60;100.00;95912.88;5053427;27;105878;-77
2023/09/18 11:13:45;;;;;;;11.47;3.27;;;;;;;24.44;100.00;95917.47;5072306;27;101837;-77
2023/09/18 11:16:35;;;;;;;7.67;3.00;;;;;;;24.58;100.00;95926.81;5053968;27;104809;-77
2023/09/18 11:19:19;;;;;;;7.93;2.87;;;;;;;24.66;100.00;95933.22;5053320;27;105955;-77
2023/09/18 11:21:46;;;;;;;7.80;2.37;;;;;;;24.31;100.00;95932.28;5054074;27;102182;-77
2023/09/18 11:24:18;;;;;;;9.07;2.77;;;;;;;24.31;100.00;95927.63;5053362;27;105752;-77